createdAt,value
2016-12-30T00:00:52.407Z,1037.2
2016-12-30T00:03:24.724Z,1037.2
2016-12-30T00:05:57.059Z,1037.2
2016-12-30T00:08:29.364Z,1037.2
2016-12-30T00:11:01.887Z,1037.2
2016-12-30T00:13:34.191Z,1037.2
2016-12-30T00:16:06.537Z,1037.2
2016-12-30T00:18:38.852Z,1037.3
2016-12-30T00:21:11.180Z,1037.3
2016-12-30T00:23:43.502Z,1037.3
2016-12-30T00:26:15.802Z,1037.3
2016-12-30T00:28:48.125Z,1037.3
2016-12-30T00:31:20.445Z,1037.3
2016-12-30T00:33:52.750Z,1037.3
2016-12-30T00:36:25.071Z,1037.3
2016-12-30T00:38:57.391Z,1037.3
2016-12-30T00:41:29.728Z,1037.3
2016-12-30T00:44:02.056Z,1037.3
2016-12-30T00:46:34.362Z,1037.3
2016-12-30T00:49:06.690Z,1037.3
2016-12-30T00:51:39.001Z,1037.3
2016-12-30T00:54:11.334Z,1037.3
2016-12-30T00:56:43.666Z,1037.3
2016-12-30T00:59:15.982Z,1037.2
2016-12-30T01:01:48.309Z,1037.2
2016-12-30T01:04:20.626Z,1037.2
2016-12-30T01:06:52.958Z,1037.2
2016-12-30T01:09:25.264Z,1037.2
2016-12-30T01:11:57.583Z,1037.1
2016-12-30T01:14:29.922Z,1037.2
2016-12-30T01:17:02.234Z,1037.1
2016-12-30T01:19:34.569Z,1037.2
2016-12-30T01:22:06.893Z,1037.1
2016-12-30T01:24:39.249Z,1037.2
2016-12-30T01:27:11.558Z,1037.2
2016-12-30T01:29:43.862Z,1037.2
2016-12-30T01:32:16.183Z,1037.2
2016-12-30T01:34:48.510Z,1037.2
2016-12-30T01:37:20.845Z,1037.1
2016-12-30T01:39:53.163Z,1037.1
2016-12-30T01:42:25.490Z,1037.1
2016-12-30T01:44:57.814Z,1037.1
2016-12-30T01:47:30.324Z,1037.1
2016-12-30T01:50:02.625Z,1037.1
2016-12-30T01:52:34.961Z,1037.1
2016-12-30T01:55:07.281Z,1037.1
2016-12-30T01:57:39.625Z,1037.1
2016-12-30T02:00:11.961Z,1037.1
2016-12-30T02:02:44.262Z,1037.1
2016-12-30T02:05:16.605Z,1037.1
2016-12-30T02:07:48.911Z,1037
2016-12-30T02:10:21.227Z,1037
2016-12-30T02:12:53.535Z,1037
2016-12-30T02:15:25.852Z,1036.9
2016-12-30T02:17:58.163Z,1036.9
2016-12-30T02:20:30.495Z,1036.9
2016-12-30T02:23:02.815Z,1036.9
2016-12-30T02:25:35.131Z,1036.9
2016-12-30T02:28:07.448Z,1036.9
2016-12-30T02:30:39.761Z,1036.9
2016-12-30T02:33:12.070Z,1037
2016-12-30T02:35:44.386Z,1036.9
2016-12-30T02:38:16.702Z,1037
2016-12-30T02:40:49.036Z,1036.9
2016-12-30T02:43:21.768Z,1036.9
2016-12-30T02:45:54.085Z,1036.9
2016-12-30T02:48:26.403Z,1036.9
2016-12-30T02:50:58.702Z,1036.9
2016-12-30T02:53:31.048Z,1036.9
2016-12-30T02:56:03.358Z,1036.9
2016-12-30T02:58:35.667Z,1036.8
2016-12-30T03:01:07.993Z,1036.9
2016-12-30T03:03:40.308Z,1036.8
2016-12-30T03:06:12.626Z,1036.8
2016-12-30T03:08:44.950Z,1036.9
2016-12-30T03:11:17.264Z,1036.8
2016-12-30T03:13:49.597Z,1036.8
2016-12-30T03:16:21.912Z,1036.8
2016-12-30T03:18:54.210Z,1036.9
2016-12-30T03:21:26.534Z,1036.8
2016-12-30T03:23:58.841Z,1036.8
2016-12-30T03:26:31.143Z,1036.8
2016-12-30T03:29:03.482Z,1036.7
2016-12-30T03:31:35.800Z,1036.7
2016-12-30T03:34:08.107Z,1036.7
2016-12-30T03:36:40.423Z,1036.7
2016-12-30T03:39:12.759Z,1036.7
2016-12-30T03:41:45.085Z,1036.7
2016-12-30T03:44:17.406Z,1036.7
2016-12-30T03:46:49.705Z,1036.7
2016-12-30T03:49:22.039Z,1036.7
2016-12-30T03:51:54.357Z,1036.6
2016-12-30T03:54:26.662Z,1036.6
2016-12-30T03:56:58.999Z,1036.5
2016-12-30T03:59:31.303Z,1036.5
2016-12-30T04:02:03.612Z,1036.5
2016-12-30T04:04:35.928Z,1036.4
2016-12-30T04:07:08.257Z,1036.4
2016-12-30T04:09:40.558Z,1036.4
2016-12-30T04:12:12.885Z,1036.4
2016-12-30T04:14:45.176Z,1036.4
2016-12-30T04:17:17.502Z,1036.3
2016-12-30T04:19:49.820Z,1036.3
2016-12-30T04:22:22.131Z,1036.3
2016-12-30T04:24:54.448Z,1036.3
2016-12-30T04:27:26.772Z,1036.3
2016-12-30T04:29:59.086Z,1036.3
2016-12-30T04:32:31.398Z,1036.3
2016-12-30T04:35:03.727Z,1036.2
2016-12-30T04:37:36.051Z,1036.2
2016-12-30T04:40:08.366Z,1036.2
2016-12-30T04:42:40.704Z,1036.2
2016-12-30T04:45:13.618Z,1036.2
2016-12-30T04:47:45.934Z,1036.1
2016-12-30T04:50:18.244Z,1036.1
2016-12-30T04:52:50.570Z,1036.1
2016-12-30T04:55:22.895Z,1036.1
2016-12-30T04:57:55.202Z,1036
2016-12-30T05:00:27.504Z,1036
2016-12-30T05:02:59.830Z,1036
2016-12-30T05:05:32.155Z,1036
2016-12-30T05:08:04.483Z,1036
2016-12-30T05:10:36.789Z,1036
2016-12-30T05:13:09.122Z,1036
2016-12-30T05:15:41.438Z,1036.1
2016-12-30T05:18:13.767Z,1036.1
2016-12-30T05:20:46.073Z,1036.1
2016-12-30T05:23:18.399Z,1036.1
2016-12-30T05:25:50.706Z,1036
2016-12-30T05:28:23.009Z,1036
2016-12-30T05:30:55.336Z,1035.9
2016-12-30T05:33:27.665Z,1035.9
2016-12-30T05:36:00.004Z,1035.9
2016-12-30T05:38:32.325Z,1035.8
2016-12-30T05:41:04.668Z,1035.9
2016-12-30T05:43:37.599Z,1035.9
2016-12-30T05:46:09.910Z,1035.9
2016-12-30T05:48:42.234Z,1035.9
2016-12-30T05:51:14.540Z,1035.8
2016-12-30T05:53:46.858Z,1035.8
2016-12-30T05:56:19.229Z,1035.8
2016-12-30T05:58:51.696Z,1035.9
2016-12-30T06:01:24.055Z,1035.8
2016-12-30T06:04:39.354Z,1035.7
2016-12-30T06:07:11.692Z,1035.7
2016-12-30T06:09:44.015Z,1035.7
2016-12-30T06:12:16.350Z,1035.7
2016-12-30T06:14:48.668Z,1035.7
2016-12-30T06:17:21.422Z,1035.7
2016-12-30T06:19:53.738Z,1035.8
2016-12-30T06:22:26.073Z,1035.8
2016-12-30T06:24:58.401Z,1035.9
2016-12-30T06:27:30.725Z,1035.9
2016-12-30T06:30:03.056Z,1036
2016-12-30T06:32:35.378Z,1035.9
2016-12-30T06:35:07.700Z,1035.8
2016-12-30T06:37:40.043Z,1035.8
2016-12-30T06:40:12.740Z,1035.8
2016-12-30T06:42:45.060Z,1035.8
2016-12-30T06:45:17.358Z,1035.8
2016-12-30T06:47:49.689Z,1035.7
2016-12-30T06:50:22.006Z,1035.7
2016-12-30T06:52:54.333Z,1035.8
2016-12-30T06:55:26.663Z,1035.8
2016-12-30T06:57:59.006Z,1035.7
2016-12-30T07:00:31.345Z,1035.7
2016-12-30T07:03:03.654Z,1035.6
2016-12-30T07:05:38.547Z,1035.5
2016-12-30T07:08:12.549Z,1035.5
2016-12-30T07:10:44.886Z,1035.4
2016-12-30T07:13:17.228Z,1035.4
2016-12-30T07:15:49.600Z,1035.4
2016-12-30T07:18:21.928Z,1035.5
2016-12-30T07:20:54.265Z,1035.4
2016-12-30T07:23:26.678Z,1035.4
2016-12-30T07:25:59.344Z,1035.4
2016-12-30T07:28:31.687Z,1035.5
2016-12-30T07:31:03.991Z,1035.5
2016-12-30T07:33:36.304Z,1035.6
2016-12-30T07:36:08.620Z,1035.5
2016-12-30T07:38:40.953Z,1035.5
2016-12-30T07:41:13.266Z,1035.5
2016-12-30T07:43:45.594Z,1035.6
2016-12-30T07:46:17.923Z,1035.5
2016-12-30T07:48:50.238Z,1035.5
2016-12-30T07:51:22.594Z,1035.6
2016-12-30T07:53:54.915Z,1035.6
2016-12-30T07:56:27.249Z,1035.6
2016-12-30T07:58:59.562Z,1035.5
2016-12-30T08:01:31.880Z,1035.4
2016-12-30T08:04:04.209Z,1035.4
2016-12-30T08:06:36.539Z,1035.3
2016-12-30T08:09:08.853Z,1035.3
2016-12-30T08:11:41.165Z,1035.3
2016-12-30T08:14:13.514Z,1035.4
2016-12-30T08:16:45.821Z,1035.3
2016-12-30T08:19:18.144Z,1035.3
2016-12-30T08:21:50.890Z,1035.2
2016-12-30T08:24:23.212Z,1035.2
2016-12-30T08:26:55.528Z,1035.2
2016-12-30T08:29:27.842Z,1035.2
2016-12-30T08:32:00.173Z,1035.2
2016-12-30T08:34:32.506Z,1035.2
2016-12-30T08:37:04.824Z,1035.2
2016-12-30T08:39:37.145Z,1035.2
2016-12-30T08:42:09.473Z,1035.2
2016-12-30T08:44:41.793Z,1035.1
2016-12-30T08:47:14.191Z,1035
2016-12-30T08:49:46.602Z,1035
2016-12-30T08:52:19.004Z,1035.1
2016-12-30T08:54:51.407Z,1035.1
2016-12-30T08:57:23.792Z,1035.1
2016-12-30T08:59:56.389Z,1035
2016-12-30T09:02:28.770Z,1035
2016-12-30T09:05:01.176Z,1035.1
2016-12-30T09:07:33.551Z,1035.1
2016-12-30T09:10:05.961Z,1035
2016-12-30T09:12:38.347Z,1035
2016-12-30T09:15:10.723Z,1035
2016-12-30T09:17:43.127Z,1035
2016-12-30T09:20:15.704Z,1035
2016-12-30T09:22:48.563Z,1035.1
2016-12-30T09:25:20.943Z,1035
2016-12-30T09:27:53.332Z,1035.1
2016-12-30T09:30:25.721Z,1035
2016-12-30T09:32:58.103Z,1034.9
2016-12-30T09:35:30.693Z,1034.9
2016-12-30T09:38:03.514Z,1035
2016-12-30T09:40:35.927Z,1035
2016-12-30T09:43:08.302Z,1035
2016-12-30T09:45:40.687Z,1034.9
2016-12-30T09:48:13.102Z,1034.9
2016-12-30T09:50:45.508Z,1034.9
2016-12-30T09:53:17.899Z,1034.9
2016-12-30T09:55:50.296Z,1035
2016-12-30T09:58:22.703Z,1034.9
2016-12-30T10:00:55.123Z,1035
2016-12-30T10:03:27.526Z,1034.9
2016-12-30T10:05:59.920Z,1034.9
2016-12-30T10:08:32.312Z,1034.9
2016-12-30T10:11:04.718Z,1034.9
2016-12-30T10:13:37.107Z,1034.8
2016-12-30T10:16:09.510Z,1034.9
2016-12-30T10:18:41.897Z,1034.9
2016-12-30T10:21:14.274Z,1034.9
2016-12-30T10:23:46.663Z,1034.8
2016-12-30T10:26:19.062Z,1034.8
2016-12-30T10:28:51.462Z,1034.7
2016-12-30T10:31:23.861Z,1034.8
2016-12-30T10:33:56.248Z,1034.8
2016-12-30T10:36:28.654Z,1034.8
2016-12-30T10:39:01.039Z,1034.9
2016-12-30T10:41:33.444Z,1034.8
2016-12-30T10:44:05.828Z,1034.7
2016-12-30T10:46:38.236Z,1034.7
2016-12-30T10:49:10.627Z,1034.8
2016-12-30T10:51:43.221Z,1034.7
2016-12-30T10:54:15.629Z,1034.8
2016-12-30T10:56:48.011Z,1034.8
2016-12-30T10:59:20.404Z,1034.7
2016-12-30T11:01:52.795Z,1034.7
2016-12-30T11:04:25.201Z,1034.8
2016-12-30T11:06:57.643Z,1034.8
2016-12-30T11:09:30.035Z,1034.8
2016-12-30T11:12:02.434Z,1034.8
2016-12-30T11:14:34.815Z,1034.7
2016-12-30T11:17:07.213Z,1034.7
2016-12-30T11:19:39.608Z,1034.6
2016-12-30T11:22:12.018Z,1034.6
2016-12-30T11:24:44.405Z,1034.5
2016-12-30T11:27:16.795Z,1034.6
2016-12-30T11:29:49.177Z,1034.5
2016-12-30T11:32:21.578Z,1034.6
2016-12-30T11:34:53.955Z,1034.5
2016-12-30T11:37:26.329Z,1034.5
2016-12-30T11:39:58.714Z,1034.6
2016-12-30T11:42:31.120Z,1034.5
2016-12-30T11:45:03.511Z,1034.5
2016-12-30T11:47:35.907Z,1034.4
2016-12-30T11:50:08.278Z,1034.4
2016-12-30T11:52:40.678Z,1034.3
2016-12-30T11:55:13.079Z,1034.3
2016-12-30T11:57:45.461Z,1034.2
2016-12-30T12:00:17.873Z,1034.2
2016-12-30T12:02:50.318Z,1034.1
2016-12-30T12:05:22.701Z,1034.1
2016-12-30T12:07:55.089Z,1034.1
2016-12-30T12:10:27.519Z,1034
2016-12-30T12:12:59.914Z,1034
2016-12-30T12:15:32.296Z,1034.1
2016-12-30T12:18:04.737Z,1034.1
2016-12-30T12:20:37.126Z,1034.1
2016-12-30T12:23:09.520Z,1034.1
2016-12-30T12:25:41.921Z,1034.1
2016-12-30T12:28:14.306Z,1034
2016-12-30T12:30:46.707Z,1034
2016-12-30T12:33:19.090Z,1034
2016-12-30T12:35:51.490Z,1034
2016-12-30T12:38:23.897Z,1034
2016-12-30T12:40:56.291Z,1033.9
2016-12-30T12:43:28.668Z,1034
2016-12-30T12:46:01.079Z,1033.9
2016-12-30T12:48:33.482Z,1033.9
2016-12-30T12:51:07.220Z,1033.7
2016-12-30T12:53:47.348Z,1033.7
2016-12-30T12:56:27.252Z,1033.7
2016-12-30T12:59:06.818Z,1033.7
2016-12-30T13:01:55.320Z,1033.8
2016-12-30T13:04:33.487Z,1033.7
2016-12-30T13:07:07.125Z,1033.7
2016-12-30T13:09:39.532Z,1033.6
2016-12-30T13:12:11.903Z,1033.5
2016-12-30T13:14:44.478Z,1033.4
2016-12-30T13:17:17.095Z,1033.4
2016-12-30T13:19:49.512Z,1033.4
2016-12-30T13:22:21.903Z,1033.3
2016-12-30T13:24:54.558Z,1033.3
2016-12-30T13:27:26.937Z,1033.3
2016-12-30T13:29:59.362Z,1033.3
2016-12-30T13:32:31.744Z,1033.3
2016-12-30T13:35:04.138Z,1033.3
2016-12-30T13:37:36.543Z,1033.3
2016-12-30T13:40:08.932Z,1033.3
2016-12-30T13:42:41.337Z,1033.2
2016-12-30T13:45:13.741Z,1033.3
2016-12-30T13:47:46.143Z,1033.2
2016-12-30T13:50:18.529Z,1033.2
2016-12-30T13:52:50.946Z,1033.2
2016-12-30T13:55:23.363Z,1033.2
2016-12-30T13:57:55.772Z,1033.2
2016-12-30T14:00:28.164Z,1033.2
2016-12-30T14:03:00.569Z,1033.2
2016-12-30T14:05:32.962Z,1033.3
2016-12-30T14:08:05.358Z,1033.2
2016-12-30T14:10:37.744Z,1033.1
2016-12-30T14:13:10.142Z,1033.2
2016-12-30T14:15:42.546Z,1033.3
2016-12-30T14:18:14.941Z,1033.3
2016-12-30T14:20:47.342Z,1033.3
2016-12-30T14:23:19.744Z,1033.3
2016-12-30T14:25:52.144Z,1033.3
2016-12-30T14:28:24.521Z,1033.3
2016-12-30T14:30:56.911Z,1033.3
2016-12-30T14:33:29.327Z,1033.3
2016-12-30T14:36:01.725Z,1033.3
2016-12-30T14:38:34.157Z,1033.3
2016-12-30T14:41:06.542Z,1033.3
2016-12-30T14:43:38.938Z,1033.3
2016-12-30T14:46:11.340Z,1033.3
2016-12-30T14:48:43.748Z,1033.3
2016-12-30T14:51:16.184Z,1033.2
2016-12-30T14:53:48.585Z,1033.2
2016-12-30T14:56:20.978Z,1033.2
2016-12-30T14:58:53.358Z,1033.2
2016-12-30T15:01:25.771Z,1033.2
2016-12-30T15:03:58.189Z,1033.2
2016-12-30T15:06:30.585Z,1033.2
2016-12-30T15:09:02.975Z,1033.1
2016-12-30T15:11:35.380Z,1033.1
2016-12-30T15:14:07.773Z,1033.1
2016-12-30T15:16:40.166Z,1033.2
2016-12-30T15:19:12.572Z,1033.2
2016-12-30T15:21:45.088Z,1033.2
2016-12-30T15:24:20.348Z,1033.3
2016-12-30T15:26:52.775Z,1033.3
2016-12-30T15:29:25.161Z,1033.3
2016-12-30T15:31:57.578Z,1033.3
2016-12-30T15:34:29.964Z,1033.3
2016-12-30T15:37:02.385Z,1033.3
2016-12-30T15:39:34.769Z,1033.3
2016-12-30T15:42:07.178Z,1033.3
2016-12-30T15:44:39.557Z,1033.3
2016-12-30T15:47:11.962Z,1033.3
2016-12-30T15:49:44.353Z,1033.3
2016-12-30T15:52:16.722Z,1033.3
2016-12-30T15:54:49.140Z,1033.3
2016-12-30T15:57:21.549Z,1033.2
2016-12-30T15:59:53.942Z,1033.1
2016-12-30T16:02:26.325Z,1033.1
2016-12-30T16:04:58.742Z,1033.1
2016-12-30T16:07:31.117Z,1033.1
2016-12-30T16:10:03.517Z,1033.1
2016-12-30T16:12:36.116Z,1033.2
2016-12-30T16:15:08.534Z,1033.2
2016-12-30T16:17:40.931Z,1033.2
2016-12-30T16:20:13.328Z,1033.2
2016-12-30T16:22:45.721Z,1033.1
2016-12-30T16:25:18.117Z,1033.1
2016-12-30T16:27:50.506Z,1033.1
2016-12-30T16:30:22.885Z,1033.1
2016-12-30T16:32:55.297Z,1033.1
2016-12-30T16:35:27.697Z,1033.1
2016-12-30T16:38:00.090Z,1033.1
2016-12-30T16:40:32.497Z,1033
2016-12-30T16:43:04.888Z,1033
2016-12-30T16:45:37.279Z,1033
2016-12-30T16:48:09.646Z,1032.9
2016-12-30T16:50:42.043Z,1032.9
2016-12-30T16:53:14.427Z,1032.9
2016-12-30T16:55:46.807Z,1032.9
2016-12-30T16:58:19.183Z,1032.9
2016-12-30T17:00:51.588Z,1032.9
2016-12-30T17:03:23.984Z,1032.9
2016-12-30T17:05:56.367Z,1032.9
2016-12-30T17:08:28.774Z,1032.8
2016-12-30T17:11:01.165Z,1032.8
2016-12-30T17:13:33.569Z,1032.8
2016-12-30T17:16:05.961Z,1032.8
2016-12-30T17:18:38.351Z,1032.7
2016-12-30T17:21:10.764Z,1032.8
2016-12-30T17:23:43.139Z,1032.6
2016-12-30T17:26:15.541Z,1032.7
2016-12-30T17:28:47.943Z,1032.7
2016-12-30T17:31:20.349Z,1032.7
2016-12-30T17:33:52.944Z,1032.7
2016-12-30T17:36:25.773Z,1032.6
2016-12-30T17:38:58.166Z,1032.7
2016-12-30T17:41:30.570Z,1032.6
2016-12-30T17:44:02.989Z,1032.6
2016-12-30T17:46:35.372Z,1032.6
2016-12-30T17:49:07.791Z,1032.6
2016-12-30T17:51:40.171Z,1032.7
2016-12-30T17:54:12.981Z,1032.7
2016-12-30T17:56:45.385Z,1032.6
2016-12-30T17:59:17.776Z,1032.6
2016-12-30T18:01:50.210Z,1032.6
2016-12-30T18:04:22.594Z,1032.6
2016-12-30T18:06:55.003Z,1032.6
2016-12-30T18:09:27.374Z,1032.6
2016-12-30T18:11:59.771Z,1032.6
2016-12-30T18:14:32.169Z,1032.6
2016-12-30T18:17:04.572Z,1032.7
2016-12-30T18:19:36.960Z,1032.7
2016-12-30T18:22:09.370Z,1032.8
2016-12-30T18:24:41.780Z,1032.8
2016-12-30T18:27:14.169Z,1032.8
2016-12-30T18:29:46.571Z,1032.7
2016-12-30T18:32:18.959Z,1032.7
2016-12-30T18:34:51.344Z,1032.6
2016-12-30T18:37:23.745Z,1032.7
2016-12-30T18:39:56.139Z,1032.7
2016-12-30T18:42:28.540Z,1032.7
2016-12-30T18:45:00.932Z,1032.7
2016-12-30T18:47:33.330Z,1032.6
2016-12-30T18:50:05.919Z,1032.7
2016-12-30T18:52:38.304Z,1032.7
2016-12-30T18:55:10.699Z,1032.8
2016-12-30T18:57:43.080Z,1032.7
2016-12-30T19:00:15.482Z,1032.7
2016-12-30T19:02:47.865Z,1032.7
2016-12-30T19:05:20.275Z,1032.6
2016-12-30T19:07:52.667Z,1032.6
2016-12-30T19:10:25.097Z,1032.6
2016-12-30T19:12:57.482Z,1032.6
2016-12-30T19:15:29.865Z,1032.6
2016-12-30T19:18:02.255Z,1032.5
2016-12-30T19:20:34.651Z,1032.5
2016-12-30T19:23:07.050Z,1032.6
2016-12-30T19:25:39.449Z,1032.6
2016-12-30T19:28:11.845Z,1032.6
2016-12-30T19:30:44.258Z,1032.6
2016-12-30T19:33:16.673Z,1032.6
2016-12-30T19:35:49.066Z,1032.6
2016-12-30T19:38:21.444Z,1032.6
2016-12-30T19:40:53.862Z,1032.6
2016-12-30T19:43:26.233Z,1032.6
2016-12-30T19:45:58.640Z,1032.6
2016-12-30T19:48:31.025Z,1032.5
2016-12-30T19:51:03.426Z,1032.5
2016-12-30T19:53:35.823Z,1032.5
2016-12-30T19:56:08.253Z,1032.5
2016-12-30T19:58:40.629Z,1032.5
2016-12-30T20:01:13.045Z,1032.4
2016-12-30T20:03:45.439Z,1032.4
2016-12-30T20:06:17.822Z,1032.3
2016-12-30T20:08:50.233Z,1032.4
2016-12-30T20:11:22.617Z,1032.3
2016-12-30T20:13:55.046Z,1032.4
2016-12-30T20:16:27.433Z,1032.3
2016-12-30T20:18:59.837Z,1032.3
2016-12-30T20:21:32.240Z,1032.3
2016-12-30T20:24:04.635Z,1032.3
2016-12-30T20:26:37.011Z,1032.2
2016-12-30T20:29:09.385Z,1032.2
2016-12-30T20:31:41.800Z,1032.2
2016-12-30T20:34:14.191Z,1032.2
2016-12-30T20:36:46.566Z,1032.2
2016-12-30T20:39:18.951Z,1032.2
2016-12-30T20:41:51.337Z,1032.2
2016-12-30T20:44:23.739Z,1032.1
2016-12-30T20:46:56.135Z,1032.2
2016-12-30T20:49:28.533Z,1032.2
2016-12-30T20:52:00.909Z,1032.2
2016-12-30T20:54:33.307Z,1032.2
2016-12-30T20:57:05.701Z,1032.2
2016-12-30T20:59:38.090Z,1032.2
2016-12-30T21:02:10.513Z,1032.2
2016-12-30T21:04:43.549Z,1032.2
2016-12-30T21:07:15.947Z,1032.3
2016-12-30T21:09:48.335Z,1032.2
2016-12-30T21:12:20.752Z,1032.2
2016-12-30T21:14:53.127Z,1032.3
2016-12-30T21:17:25.521Z,1032.3
2016-12-30T21:19:57.917Z,1032.3
2016-12-30T21:22:30.327Z,1032.3
2016-12-30T21:25:02.911Z,1032.3
2016-12-30T21:27:35.729Z,1032.3
2016-12-30T21:30:08.115Z,1032.3
2016-12-30T21:32:40.502Z,1032.3
2016-12-30T21:35:12.897Z,1032.2
2016-12-30T21:37:45.287Z,1032.2
2016-12-30T21:40:17.688Z,1032.2
2016-12-30T21:42:50.076Z,1032.2
2016-12-30T21:45:22.470Z,1032.2
2016-12-30T21:47:54.886Z,1032.1
2016-12-30T21:50:27.265Z,1032.1
2016-12-30T21:52:59.676Z,1032.2
2016-12-30T21:55:32.064Z,1032.1
2016-12-30T21:58:04.459Z,1032.2
2016-12-30T22:00:36.840Z,1032.1
2016-12-30T22:03:09.247Z,1032.1
2016-12-30T22:05:41.642Z,1032.1
2016-12-30T22:08:14.020Z,1032
2016-12-30T22:10:46.402Z,1032
2016-12-30T22:13:18.788Z,1031.9
2016-12-30T22:15:51.183Z,1031.9
2016-12-30T22:18:23.578Z,1031.9
2016-12-30T22:20:55.963Z,1031.8
2016-12-30T22:23:28.345Z,1031.9
2016-12-30T22:26:00.742Z,1031.8
2016-12-30T22:28:33.159Z,1031.8
2016-12-30T22:31:05.558Z,1031.8
2016-12-30T22:33:37.965Z,1031.7
2016-12-30T22:36:10.348Z,1031.7
2016-12-30T22:38:42.739Z,1031.7
2016-12-30T22:41:15.135Z,1031.7
2016-12-30T22:43:47.532Z,1031.7
2016-12-30T22:46:19.940Z,1031.6
2016-12-30T22:48:52.330Z,1031.5
2016-12-30T22:51:24.732Z,1031.5
2016-12-30T22:53:57.158Z,1031.5
2016-12-30T22:56:29.537Z,1031.5
2016-12-30T22:59:01.931Z,1031.5
2016-12-30T23:01:34.309Z,1031.5
2016-12-30T23:04:06.696Z,1031.4
2016-12-30T23:06:39.077Z,1031.5
2016-12-30T23:09:11.476Z,1031.5
2016-12-30T23:11:43.891Z,1031.5
2016-12-30T23:14:16.285Z,1031.5
2016-12-30T23:16:48.692Z,1031.5
2016-12-30T23:19:21.074Z,1031.5
2016-12-30T23:21:53.473Z,1031.4
2016-12-30T23:24:25.843Z,1031.4
2016-12-30T23:26:58.233Z,1031.4
2016-12-30T23:29:30.643Z,1031.4
2016-12-30T23:32:03.057Z,1031.3
2016-12-30T23:34:35.455Z,1031.3
2016-12-30T23:37:07.844Z,1031.4
2016-12-30T23:39:40.246Z,1031.3
2016-12-30T23:42:12.616Z,1031.3
2016-12-30T23:44:45.022Z,1031.3
2016-12-30T23:47:17.410Z,1031.3
2016-12-30T23:49:49.816Z,1031.2
2016-12-30T23:52:22.199Z,1031.2
2016-12-30T23:54:54.600Z,1031.2
2016-12-30T23:57:26.997Z,1031.2
2016-12-30T23:59:59.381Z,1031.2
